createdAt,value
2022-10-20T00:04:54.862Z,99901.13
2022-10-20T00:08:00.620Z,99902.45
2022-10-20T00:11:06.785Z,99905.27
2022-10-20T00:14:12.843Z,99905.51
2022-10-20T00:17:18.553Z,99905.92
2022-10-20T00:20:24.442Z,99909.26
2022-10-20T00:23:30.106Z,99906.19
2022-10-20T00:26:35.962Z,99907.59
2022-10-20T00:29:42.031Z,99908.08
2022-10-20T00:32:49.770Z,99910.06
2022-10-20T00:35:55.650Z,99912.20
2022-10-20T00:39:05.661Z,99913.44
2022-10-20T00:42:15.964Z,99913.08
2022-10-20T00:45:23.283Z,99910.52
2022-10-20T00:48:33.175Z,99911.89
2022-10-20T00:51:39.103Z,99915.76
2022-10-20T00:54:44.851Z,99914.77
2022-10-20T00:57:53.261Z,99916.34
2022-10-20T01:01:00.966Z,99914.09
2022-10-20T01:04:07.206Z,99913.57
2022-10-20T01:07:13.088Z,99912.09
2022-10-20T01:10:19.664Z,99910.41
2022-10-20T01:13:37.813Z,99909.24
2022-10-20T01:16:55.956Z,99911.13
2022-10-20T01:20:46.660Z,99910.28
2022-10-20T01:24:38.700Z,99912.72
2022-10-20T01:27:46.598Z,99908.77
2022-10-20T01:30:58.092Z,99905.30
2022-10-20T01:34:09.978Z,99904.11
2022-10-20T01:37:34.015Z,99903.66
2022-10-20T01:40:51.312Z,99899.59
2022-10-20T01:43:57.881Z,99902.17
2022-10-20T01:47:05.058Z,99906.84
2022-10-20T01:50:13.904Z,99905.54
2022-10-20T01:53:20.769Z,99901.30
2022-10-20T01:56:36.756Z,99903.05
2022-10-20T02:00:01.047Z,99905.95
2022-10-20T02:03:34.138Z,99908.31
2022-10-20T02:06:51.058Z,99907.16
2022-10-20T02:10:01.933Z,99907.41
2022-10-20T02:13:11.400Z,99904.23
2022-10-20T02:16:21.142Z,99901.70
2022-10-20T02:19:34.889Z,99900.25
2022-10-20T02:22:42.323Z,99899.76
2022-10-20T02:25:50.889Z,99906.16
2022-10-20T02:29:01.760Z,99911.30
2022-10-20T02:32:09.185Z,99918.27
2022-10-20T02:35:19.096Z,99914.94
2022-10-20T02:38:24.853Z,99910.78
2022-10-20T02:41:31.257Z,99911.80
2022-10-20T02:44:36.897Z,99914.45
2022-10-20T02:47:42.630Z,99916.88
2022-10-20T02:50:48.380Z,99912.59
2022-10-20T02:53:55.009Z,99917.02
2022-10-20T02:57:00.651Z,99919.95
2022-10-20T03:00:08.085Z,99919.30
2022-10-20T03:03:13.856Z,99920.88
2022-10-20T03:06:19.608Z,99927.05
2022-10-20T03:09:25.360Z,99931.52
2022-10-20T03:12:32.249Z,99935.11
2022-10-20T03:15:38.611Z,99931.23
2022-10-20T03:18:44.280Z,99934.27
2022-10-20T03:21:49.996Z,99937.63
2022-10-20T03:24:55.691Z,99941.58
2022-10-20T03:28:01.606Z,99943.69
2022-10-20T03:31:07.540Z,99947.39
2022-10-20T03:34:13.950Z,99949.83
2022-10-20T03:37:19.708Z,99950.27
2022-10-20T03:40:25.553Z,99948.55
2022-10-20T03:43:31.218Z,99952.99
2022-10-20T03:46:36.971Z,99958.20
2022-10-20T03:49:43.225Z,99958.48
2022-10-20T03:52:48.293Z,99959.67
2022-10-20T03:55:54.236Z,99960.56
2022-10-20T03:59:00.043Z,99961.09
2022-10-20T04:02:06.388Z,99960.56
2022-10-20T04:05:12.829Z,99959.11
2022-10-20T04:08:18.708Z,99961.59
2022-10-20T04:11:27.009Z,99963.52
2022-10-20T04:14:32.651Z,99969.21
2022-10-20T04:20:45.490Z,99973.39
2022-10-20T04:23:51.171Z,99976.80
2022-10-20T04:26:56.846Z,99973.61
2022-10-20T04:30:02.486Z,99973.56
2022-10-20T04:33:08.480Z,99974.36
2022-10-20T04:36:15.533Z,99977.27
2022-10-20T04:39:21.244Z,99976.08
2022-10-20T04:42:27.100Z,99974.05
2022-10-20T04:45:32.855Z,99967.37
2022-10-20T04:48:39.019Z,99966.73
2022-10-20T04:51:44.774Z,99962.57
2022-10-20T04:54:50.939Z,99969.20
2022-10-20T04:57:56.589Z,99969.98
2022-10-20T05:01:06.620Z,99965.68
2022-10-20T05:04:13.211Z,99966.42
2022-10-20T05:07:18.972Z,99974.48
2022-10-20T05:10:24.724Z,99979.81
2022-10-20T05:13:30.478Z,99984.60
2022-10-20T05:16:36.556Z,99985.65
2022-10-20T05:19:42.295Z,99988.41
2022-10-20T05:22:48.049Z,99991.98
2022-10-20T05:25:53.725Z,99990.32
2022-10-20T05:28:59.454Z,99995.11
2022-10-20T05:32:05.322Z,100001.83
2022-10-20T05:35:12.146Z,100004.81
2022-10-20T05:38:17.825Z,100006.44
2022-10-20T05:41:25.470Z,100007.52
2022-10-20T05:44:31.501Z,100008.67
2022-10-20T05:47:37.767Z,100011.11
2022-10-20T05:50:43.687Z,100019.63
2022-10-20T05:53:49.788Z,100023.55
2022-10-20T05:56:55.454Z,100024.83
2022-10-20T06:00:01.194Z,100023.92
2022-10-20T06:03:07.050Z,100027.87
2022-10-20T06:06:12.698Z,100027.38
2022-10-20T06:09:19.521Z,100027.59
2022-10-20T06:12:25.317Z,100027.80
2022-10-20T06:15:30.989Z,100032.70
2022-10-20T06:18:38.855Z,100036.45
2022-10-20T06:21:44.554Z,100040.09
2022-10-20T06:24:50.299Z,100045.26
2022-10-20T06:27:56.054Z,100048.66
2022-10-20T06:31:02.114Z,100049.36
2022-10-20T06:34:10.079Z,100048.79
2022-10-20T06:37:15.983Z,100049.45
2022-10-20T06:40:22.039Z,100050.65
2022-10-20T06:43:28.408Z,100052.27
2022-10-20T06:46:36.476Z,100048.91
2022-10-20T06:49:42.184Z,100051.58
2022-10-20T06:52:47.923Z,100052.10
2022-10-20T06:56:00.144Z,100050.85
2022-10-20T06:59:06.297Z,100054.16
2022-10-20T07:02:13.636Z,100053.00
2022-10-20T07:05:19.999Z,100060.58
2022-10-20T07:08:24.072Z,100063.23
2022-10-20T07:11:32.096Z,100056.48
2022-10-20T07:14:37.827Z,100049.08
2022-10-20T07:17:43.440Z,100046.45
2022-10-20T07:20:49.061Z,100045.95
2022-10-20T07:23:56.264Z,100044.77
2022-10-20T07:27:01.970Z,100046.19
2022-10-20T07:30:09.200Z,100045.30
2022-10-20T07:33:14.911Z,100042.27
2022-10-20T07:36:23.961Z,100041.77
2022-10-20T07:39:29.999Z,100038.23
2022-10-20T07:42:35.897Z,100035.36
2022-10-20T07:45:41.746Z,100032.60
2022-10-20T07:48:47.568Z,100029.48
2022-10-20T07:51:53.329Z,100021.96
2022-10-20T07:55:07.486Z,100020.41
2022-10-20T07:58:25.625Z,100017.28
2022-10-20T08:01:31.740Z,100012.67
2022-10-20T08:04:37.542Z,100008.02
2022-10-20T08:07:43.296Z,100002.23
2022-10-20T08:10:49.359Z,100000.23
2022-10-20T08:13:55.111Z,99999.06
2022-10-20T08:17:03.413Z,99996.73
2022-10-20T08:20:16.966Z,99997.58
2022-10-20T08:23:22.600Z,100001.50
2022-10-20T08:26:29.127Z,100000.79
2022-10-20T08:29:34.821Z,100002.69
2022-10-20T08:32:40.798Z,100005.89
2022-10-20T08:35:46.553Z,100006.59
2022-10-20T08:38:52.357Z,100002.30
2022-10-20T08:42:08.848Z,100004.76
2022-10-20T08:45:19.380Z,100007.94
2022-10-20T08:48:28.608Z,100009.80
2022-10-20T08:51:38.520Z,100009.67
2022-10-20T08:54:44.349Z,100012.31
2022-10-20T08:57:50.781Z,100013.01
2022-10-20T09:01:00.663Z,100013.75
2022-10-20T09:04:22.576Z,100012.50
2022-10-20T09:07:33.163Z,100017.30
2022-10-20T09:10:42.892Z,100020.53
2022-10-20T09:17:00.673Z,100012.57
2022-10-20T09:20:13.350Z,100012.31
2022-10-20T09:23:39.871Z,100012.16
2022-10-20T09:27:03.706Z,100008.50
2022-10-20T09:30:22.234Z,100004.73
2022-10-20T09:33:31.946Z,100001.83
2022-10-20T09:36:38.433Z,99995.43
2022-10-20T09:39:55.387Z,99997.56
2022-10-20T09:43:03.480Z,99995.11
2022-10-20T09:46:12.209Z,99989.85
2022-10-20T09:49:29.835Z,99981.62
2022-10-20T09:52:47.830Z,99980.80
2022-10-20T09:55:54.465Z,99979.48
2022-10-20T09:59:00.117Z,99975.90
2022-10-20T10:02:26.898Z,99971.20
2022-10-20T10:05:35.805Z,99968.32
2022-10-20T10:08:48.002Z,99968.95
2022-10-20T10:12:00.658Z,99966.15
2022-10-20T10:15:20.094Z,99958.13
2022-10-20T10:18:26.032Z,99958.53
2022-10-20T10:21:44.279Z,99954.46
2022-10-20T10:24:52.285Z,99952.65
2022-10-20T10:28:04.696Z,99952.02
2022-10-20T10:31:23.372Z,99950.67
2022-10-20T10:34:55.219Z,99950.33
2022-10-20T10:38:01.618Z,99949.52
2022-10-20T10:41:09.516Z,99950.13
2022-10-20T10:44:21.624Z,99943.70
2022-10-20T10:47:41.780Z,99941.88
2022-10-20T10:50:52.967Z,99940.90
2022-10-20T10:54:12.364Z,99936.86
2022-10-20T10:57:32.120Z,99936.84
2022-10-20T11:00:49.310Z,99940.27
2022-10-20T11:04:27.141Z,99930.65
2022-10-20T11:07:43.760Z,99934.14
2022-10-20T11:11:01.496Z,99925.95
2022-10-20T11:17:47.226Z,99920.03
2022-10-20T11:21:02.614Z,99915.60
2022-10-20T11:24:21.855Z,99903.73
2022-10-20T11:27:32.013Z,99895.45
2022-10-20T11:30:37.768Z,99891.90
2022-10-20T11:33:48.642Z,99891.64
2022-10-20T11:37:01.358Z,99887.52
2022-10-20T11:40:17.989Z,99886.86
2022-10-20T11:43:28.865Z,99880.56
2022-10-20T11:46:39.321Z,99868.39
2022-10-20T11:49:57.757Z,99865.00
2022-10-20T11:54:00.654Z,99864.95
2022-10-20T11:57:30.312Z,99860.89
2022-10-20T12:00:59.552Z,99853.99
2022-10-20T12:04:34.211Z,99844.77
2022-10-20T12:08:29.537Z,99841.02
2022-10-20T12:11:43.976Z,99841.94
2022-10-20T12:14:57.429Z,99836.95
2022-10-20T12:18:07.773Z,99833.96
2022-10-20T12:21:14.103Z,99834.88
2022-10-20T12:24:40.670Z,99834.89
2022-10-20T12:27:46.438Z,99830.39
2022-10-20T12:30:59.303Z,99826.48
2022-10-20T12:34:05.220Z,99823.95
2022-10-20T12:37:19.775Z,99825.35
2022-10-20T12:40:31.264Z,99821.07
2022-10-20T12:43:54.324Z,99813.50
2022-10-20T12:47:05.485Z,99816.74
2022-10-20T12:50:35.159Z,99816.95
2022-10-20T12:53:41.526Z,99813.47
2022-10-20T12:56:47.882Z,99810.74
2022-10-20T12:59:53.816Z,99810.00
2022-10-20T13:03:00.276Z,99805.08
2022-10-20T13:06:44.976Z,99803.71
2022-10-20T13:10:01.811Z,99804.78
2022-10-20T13:14:03.055Z,99807.16
2022-10-20T13:17:21.677Z,99805.89
2022-10-20T13:20:40.553Z,99799.30
2022-10-20T13:23:49.082Z,99805.26
2022-10-20T13:26:59.854Z,99801.00
2022-10-20T13:30:10.952Z,99799.54
2022-10-20T13:33:38.389Z,99801.98
2022-10-20T13:37:10.899Z,99795.41
2022-10-20T13:40:24.360Z,99796.80
2022-10-20T13:43:39.155Z,99793.13
2022-10-20T13:46:58.145Z,99791.23
2022-10-20T13:50:08.559Z,99795.86
2022-10-20T13:53:23.043Z,99791.23
2022-10-20T13:56:35.656Z,99783.46
2022-10-20T13:59:55.643Z,99778.66
2022-10-20T14:03:04.469Z,99776.13
2022-10-20T14:06:32.500Z,99777.16
2022-10-20T14:09:40.615Z,99776.79
2022-10-20T14:12:49.828Z,99771.35
2022-10-20T14:15:55.750Z,99770.11
2022-10-20T14:19:03.498Z,99768.34
2022-10-20T14:22:23.074Z,99767.54
2022-10-20T14:25:31.485Z,99766.59
2022-10-20T14:28:40.109Z,99766.27
2022-10-20T14:31:46.857Z,99769.14
2022-10-20T14:35:00.726Z,99765.13
2022-10-20T14:38:16.988Z,99763.96
2022-10-20T14:41:30.861Z,99761.99
2022-10-20T14:44:36.881Z,99760.43
2022-10-20T14:47:44.183Z,99758.66
2022-10-20T14:50:50.369Z,99755.98
2022-10-20T14:54:14.431Z,99752.54
2022-10-20T14:57:45.976Z,99752.14
2022-10-20T15:00:51.745Z,99751.70
2022-10-20T15:04:14.394Z,99753.66
2022-10-20T15:07:23.630Z,99751.94
2022-10-20T15:10:32.042Z,99750.14
2022-10-20T15:13:38.349Z,99746.44
2022-10-20T15:16:47.460Z,99745.09
2022-10-20T15:19:53.205Z,99739.61
2022-10-20T15:22:59.995Z,99734.73
2022-10-20T15:26:11.393Z,99731.65
2022-10-20T15:29:17.153Z,99726.26
2022-10-20T15:32:22.873Z,99726.77
2022-10-20T15:35:31.026Z,99725.91
2022-10-20T15:38:36.684Z,99726.97
2022-10-20T15:41:42.860Z,99725.71
2022-10-20T15:44:48.552Z,99723.39
2022-10-20T15:47:54.204Z,99720.79
2022-10-20T15:51:00.261Z,99716.17
2022-10-20T15:54:06.088Z,99719.01
2022-10-20T15:57:11.813Z,99719.09
2022-10-20T16:00:18.720Z,99718.09
2022-10-20T16:03:24.409Z,99716.31
2022-10-20T16:06:30.162Z,99718.48
2022-10-20T16:09:35.918Z,99717.92
2022-10-20T16:12:42.082Z,99713.52
2022-10-20T16:15:47.721Z,99713.41
2022-10-20T16:18:53.488Z,99714.11
2022-10-20T16:21:59.243Z,99712.30
2022-10-20T16:25:05.950Z,99716.91
2022-10-20T16:28:12.105Z,99717.58
2022-10-20T16:31:18.777Z,99715.84
2022-10-20T16:34:24.470Z,99715.65
2022-10-20T16:37:31.391Z,99721.96
2022-10-20T16:40:37.147Z,99723.70
2022-10-20T16:43:45.462Z,99724.44
2022-10-20T16:46:51.213Z,99724.10
2022-10-20T16:49:57.276Z,99729.58
2022-10-20T16:53:03.071Z,99729.17
2022-10-20T16:56:10.424Z,99726.70
2022-10-20T16:59:16.177Z,99727.32
2022-10-20T17:02:23.369Z,99724.33
2022-10-20T17:05:29.118Z,99726.19
2022-10-20T17:08:36.075Z,99729.95
2022-10-20T17:11:41.976Z,99733.32
2022-10-20T17:14:47.670Z,99730.13
2022-10-20T17:17:53.320Z,99726.50
2022-10-20T17:20:59.016Z,99726.05
2022-10-20T17:24:04.845Z,99730.63
2022-10-20T17:27:11.560Z,99731.36
2022-10-20T17:30:17.603Z,99728.68
2022-10-20T17:33:24.388Z,99726.10
2022-10-20T17:36:31.365Z,99729.23
2022-10-20T17:39:37.637Z,99721.44
2022-10-20T17:42:43.289Z,99722.55
2022-10-20T17:45:58.190Z,99722.27
2022-10-20T17:49:04.380Z,99723.27
2022-10-20T17:52:10.015Z,99722.03
2022-10-20T17:55:15.913Z,99720.51
2022-10-20T17:58:21.674Z,99719.30
2022-10-20T18:01:29.839Z,99717.31
2022-10-20T18:04:36.061Z,99712.29
2022-10-20T18:07:41.917Z,99711.46
2022-10-20T18:10:49.207Z,99715.38
2022-10-20T18:13:56.602Z,99708.27
2022-10-20T18:17:02.457Z,99706.68
2022-10-20T18:20:09.820Z,99705.86
2022-10-20T18:23:15.434Z,99706.67
2022-10-20T18:26:22.422Z,99705.55
2022-10-20T18:29:28.546Z,99705.99
2022-10-20T18:32:36.257Z,99709.59
2022-10-20T18:35:42.248Z,99708.02
2022-10-20T18:38:48.675Z,99703.52
2022-10-20T18:41:55.745Z,99705.63
2022-10-20T18:45:01.516Z,99701.40
2022-10-20T18:48:08.640Z,99696.24
2022-10-20T18:51:15.289Z,99701.48
2022-10-20T18:54:23.727Z,99704.16
2022-10-20T18:57:31.597Z,99701.10
2022-10-20T19:00:37.406Z,99698.56
2022-10-20T19:03:46.281Z,99697.84
2022-10-20T19:06:52.283Z,99691.98
2022-10-20T19:09:57.998Z,99692.51
2022-10-20T19:13:03.663Z,99684.98
2022-10-20T19:16:12.572Z,99682.23
2022-10-20T19:19:18.635Z,99678.38
2022-10-20T19:22:27.039Z,99674.27
2022-10-20T19:25:35.265Z,99677.63
2022-10-20T19:28:43.933Z,99677.88
2022-10-20T19:31:52.318Z,99676.36
2022-10-20T19:34:58.057Z,99674.50
2022-10-20T19:38:03.814Z,99669.65
2022-10-20T19:41:10.049Z,99671.72
2022-10-20T19:44:16.234Z,99671.54
2022-10-20T19:47:21.994Z,99675.78
2022-10-20T19:50:27.779Z,99674.54
2022-10-20T19:53:35.161Z,99676.13
2022-10-20T19:56:41.509Z,99677.77
2022-10-20T19:59:45.661Z,99678.70
2022-10-20T20:02:51.379Z,99677.02
2022-10-20T20:06:01.912Z,99681.92
2022-10-20T20:09:10.624Z,99683.34
2022-10-20T20:12:16.321Z,99683.80
2022-10-20T20:15:22.177Z,99677.48
2022-10-20T20:18:27.932Z,99672.05
2022-10-20T20:21:33.802Z,99669.88
2022-10-20T20:24:39.954Z,99673.83
2022-10-20T20:27:45.709Z,99671.77
2022-10-20T20:31:04.177Z,99670.32
2022-10-20T20:34:09.912Z,99667.29
2022-10-20T20:37:15.670Z,99661.09
2022-10-20T20:40:21.751Z,99656.48
2022-10-20T20:43:28.245Z,99654.95
2022-10-20T20:46:34.316Z,99651.45
2022-10-20T20:49:39.981Z,99656.23
2022-10-20T20:52:45.871Z,99657.63
2022-10-20T20:55:59.265Z,99656.85
2022-10-20T20:59:05.313Z,99658.45
2022-10-20T21:02:12.092Z,99652.50
2022-10-20T21:05:17.984Z,99645.17
2022-10-20T21:08:23.858Z,99645.74
2022-10-20T21:11:30.026Z,99643.40
2022-10-20T21:14:35.778Z,99646.09
2022-10-20T21:17:41.502Z,99646.84
2022-10-20T21:20:47.183Z,99639.29
2022-10-20T21:23:53.557Z,99631.42
2022-10-20T21:26:57.679Z,99629.39
2022-10-20T21:30:03.523Z,99626.24
2022-10-20T21:33:09.147Z,99620.02
2022-10-20T21:36:16.979Z,99618.01
2022-10-20T21:39:22.813Z,99614.74
2022-10-20T21:42:28.513Z,99610.21
2022-10-20T21:45:34.241Z,99606.83
2022-10-20T21:48:39.996Z,99603.08
2022-10-20T21:51:47.898Z,99601.08
2022-10-20T21:54:53.582Z,99604.08
2022-10-20T21:57:59.304Z,99601.80
2022-10-20T22:01:11.369Z,99603.35
2022-10-20T22:04:18.083Z,99604.85
2022-10-20T22:07:24.041Z,99603.36
2022-10-20T22:10:29.796Z,99594.42
2022-10-20T22:13:35.847Z,99590.69
2022-10-20T22:16:43.660Z,99588.52
2022-10-20T22:19:50.438Z,99583.98
2022-10-20T22:22:56.091Z,99583.36
2022-10-20T22:26:01.941Z,99578.65
2022-10-20T22:29:10.053Z,99579.50
2022-10-20T22:32:15.810Z,99576.48
2022-10-20T22:35:21.427Z,99564.56
2022-10-20T22:38:27.222Z,99561.85
2022-10-20T22:41:32.875Z,99559.56
2022-10-20T22:44:38.622Z,99557.57
2022-10-20T22:47:44.376Z,99554.80
2022-10-20T22:50:50.328Z,99558.35
2022-10-20T22:53:55.986Z,99551.34
2022-10-20T22:57:01.640Z,99550.30
2022-10-20T23:00:09.512Z,99545.45
2022-10-20T23:03:15.155Z,99537.80
2022-10-20T23:06:22.388Z,99542.27
2022-10-20T23:09:28.138Z,99545.45
2022-10-20T23:12:34.658Z,99542.27
2022-10-20T23:15:40.559Z,99543.16
2022-10-20T23:18:46.426Z,99542.92
2022-10-20T23:21:54.088Z,99539.80
2022-10-20T23:24:59.775Z,99542.21
2022-10-20T23:28:05.735Z,99543.20
2022-10-20T23:31:13.879Z,99537.27
2022-10-20T23:34:19.597Z,99529.27
2022-10-20T23:37:25.454Z,99530.61
2022-10-20T23:40:31.518Z,99530.54
2022-10-20T23:43:37.589Z,99529.73
2022-10-20T23:46:44.051Z,99524.57
2022-10-20T23:49:49.693Z,99523.24
2022-10-20T23:52:55.454Z,99523.75
2022-10-20T23:56:01.210Z,99513.89
2022-10-20T23:59:07.268Z,99511.41
